sensor_id;sensor_type;location;lat;lon;timestamp;P1;durP1;ratioP1;P2;durP2;ratioP2
13311;SDS011;34033;48.672;9.376;2023-01-15T00:00:01;0.40;;;0.40;;
13311;SDS011;34033;48.672;9.376;2023-01-15T00:02:26;0.40;;;0.40;;
13311;SDS011;34033;48.672;9.376;2023-01-15T00:04:52;0.40;;;0.40;;
13311;SDS011;34033;48.672;9.376;2023-01-15T00:07:17;0.30;;;0.30;;
13311;SDS011;34033;48.672;9.376;2023-01-15T00:09:42;0.30;;;0.30;;
13311;SDS011;34033;48.672;9.376;2023-01-15T00:12:08;0.83;;;0.50;;
13311;SDS011;34033;48.672;9.376;2023-01-15T00:14:33;0.40;;;0.40;;
13311;SDS011;34033;48.672;9.376;2023-01-15T00:16:58;0.40;;;0.30;;
13311;SDS011;34033;48.672;9.376;2023-01-15T00:19:24;0.60;;;0.37;;
13311;SDS011;34033;48.672;9.376;2023-01-15T00:21:49;0.30;;;0.30;;
13311;SDS011;34033;48.672;9.376;2023-01-15T00:24:15;0.60;;;0.47;;
13311;SDS011;34033;48.672;9.376;2023-01-15T00:26:59;0.33;;;0.33;;
13311;SDS011;34033;48.672;9.376;2023-01-15T00:29:43;0.73;;;0.20;;
13311;SDS011;34033;48.672;9.376;2023-01-15T00:32:08;0.10;;;0.10;;
13311;SDS011;34033;48.672;9.376;2023-01-15T00:34:34;0.60;;;0.20;;
13311;SDS011;34033;48.672;9.376;2023-01-15T00:36:59;0.67;;;0.30;;
13311;SDS011;34033;48.672;9.376;2023-01-15T00:39:25;0.23;;;0.23;;
13311;SDS011;34033;48.672;9.376;2023-01-15T00:41:51;0.30;;;0.30;;
13311;SDS011;34033;48.672;9.376;2023-01-15T00:44:17;0.83;;;0.43;;
13311;SDS011;34033;48.672;9.376;2023-01-15T00:46:44;0.20;;;0.20;;
13311;SDS011;34033;48.672;9.376;2023-01-15T00:49:09;0.20;;;0.20;;
13311;SDS011;34033;48.672;9.376;2023-01-15T00:51:35;0.07;;;0.07;;
13311;SDS011;34033;48.672;9.376;2023-01-15T00:54:00;0.63;;;0.20;;
13311;SDS011;34033;48.672;9.376;2023-01-15T00:56:26;0.17;;;0.13;;
13311;SDS011;34033;48.672;9.376;2023-01-15T00:58:52;0.10;;;0.10;;
13311;SDS011;34033;48.672;9.376;2023-01-15T01:01:17;0.00;;;0.00;;
13311;SDS011;34033;48.672;9.376;2023-01-15T01:03:42;0.13;;;0.13;;
13311;SDS011;34033;48.672;9.376;2023-01-15T01:06:12;0.10;;;0.10;;
13311;SDS011;34033;48.672;9.376;2023-01-15T01:08:39;0.20;;;0.20;;
13311;SDS011;34033;48.672;9.376;2023-01-15T01:11:05;0.20;;;0.20;;
13311;SDS011;34033;48.672;9.376;2023-01-15T01:13:33;0.20;;;0.20;;
13311;SDS011;34033;48.672;9.376;2023-01-15T01:15:59;0.17;;;0.13;;
13311;SDS011;34033;48.672;9.376;2023-01-15T01:18:25;0.67;;;0.20;;
13311;SDS011;34033;48.672;9.376;2023-01-15T01:20:50;0.00;;;0.00;;
13311;SDS011;34033;48.672;9.376;2023-01-15T01:23:16;3.77;;;0.30;;
13311;SDS011;34033;48.672;9.376;2023-01-15T01:25:42;0.50;;;0.30;;
13311;SDS011;34033;48.672;9.376;2023-01-15T01:28:07;0.17;;;0.10;;
13311;SDS011;34033;48.672;9.376;2023-01-15T01:30:32;0.43;;;0.13;;
13311;SDS011;34033;48.672;9.376;2023-01-15T01:32:57;0.90;;;0.20;;
13311;SDS011;34033;48.672;9.376;2023-01-15T01:35:23;0.93;;;0.20;;
13311;SDS011;34033;48.672;9.376;2023-01-15T01:37:49;0.10;;;0.10;;
13311;SDS011;34033;48.672;9.376;2023-01-15T01:40:15;0.63;;;0.10;;
13311;SDS011;34033;48.672;9.376;2023-01-15T01:42:41;0.10;;;0.10;;
13311;SDS011;34033;48.672;9.376;2023-01-15T01:45:10;0.10;;;0.10;;
13311;SDS011;34033;48.672;9.376;2023-01-15T01:47:42;0.30;;;0.30;;
13311;SDS011;34033;48.672;9.376;2023-01-15T01:50:11;0.10;;;0.10;;
13311;SDS011;34033;48.672;9.376;2023-01-15T01:52:40;0.10;;;0.10;;
13311;SDS011;34033;48.672;9.376;2023-01-15T01:55:09;0.10;;;0.10;;
13311;SDS011;34033;48.672;9.376;2023-01-15T01:57:38;0.20;;;0.10;;
13311;SDS011;34033;48.672;9.376;2023-01-15T02:00:04;0.87;;;0.20;;
13311;SDS011;34033;48.672;9.376;2023-01-15T02:02:30;0.07;;;0.07;;
13311;SDS011;34033;48.672;9.376;2023-01-15T02:04:56;0.10;;;0.10;;
13311;SDS011;34033;48.672;9.376;2023-01-15T02:07:22;0.10;;;0.10;;
13311;SDS011;34033;48.672;9.376;2023-01-15T02:09:48;0.10;;;0.10;;
13311;SDS011;34033;48.672;9.376;2023-01-15T02:12:16;0.33;;;0.20;;
13311;SDS011;34033;48.672;9.376;2023-01-15T02:17:35;0.00;;;0.00;;
13311;SDS011;34033;48.672;9.376;2023-01-15T02:31:08;0.10;;;0.10;;
13311;SDS011;34033;48.672;9.376;2023-01-15T02:33:52;0.10;;;0.10;;
13311;SDS011;34033;48.672;9.376;2023-01-15T02:36:42;0.67;;;0.20;;
13311;SDS011;34033;48.672;9.376;2023-01-15T02:39:13;0.43;;;0.27;;
13311;SDS011;34033;48.672;9.376;2023-01-15T02:41:43;0.00;;;0.00;;
13311;SDS011;34033;48.672;9.376;2023-01-15T02:44:13;0.20;;;0.20;;
13311;SDS011;34033;48.672;9.376;2023-01-15T02:46:41;0.17;;;0.17;;
13311;SDS011;34033;48.672;9.376;2023-01-15T02:49:07;0.03;;;0.03;;
13311;SDS011;34033;48.672;9.376;2023-01-15T02:51:38;0.20;;;0.20;;
13311;SDS011;34033;48.672;9.376;2023-01-15T02:54:10;0.00;;;0.00;;
13311;SDS011;34033;48.672;9.376;2023-01-15T02:56:40;0.10;;;0.10;;
13311;SDS011;34033;48.672;9.376;2023-01-15T02:59:17;0.20;;;0.20;;
13311;SDS011;34033;48.672;9.376;2023-01-15T03:01:48;0.20;;;0.10;;
13311;SDS011;34033;48.672;9.376;2023-01-15T03:07:06;0.10;;;0.10;;
13311;SDS011;34033;48.672;9.376;2023-01-15T03:09:36;0.10;;;0.10;;
13311;SDS011;34033;48.672;9.376;2023-01-15T03:12:45;1.93;;;0.10;;
13311;SDS011;34033;48.672;9.376;2023-01-15T03:15:26;0.10;;;0.10;;
13311;SDS011;34033;48.672;9.376;2023-01-15T03:18:19;0.10;;;0.07;;
13311;SDS011;34033;48.672;9.376;2023-01-15T03:20:48;0.10;;;0.10;;
13311;SDS011;34033;48.672;9.376;2023-01-15T03:23:16;0.03;;;0.03;;
13311;SDS011;34033;48.672;9.376;2023-01-15T03:25:44;0.10;;;0.10;;
13311;SDS011;34033;48.672;9.376;2023-01-15T03:28:13;0.10;;;0.10;;
13311;SDS011;34033;48.672;9.376;2023-01-15T03:30:41;0.93;;;0.20;;
13311;SDS011;34033;48.672;9.376;2023-01-15T03:33:07;0.10;;;0.10;;
13311;SDS011;34033;48.672;9.376;2023-01-15T03:38:17;0.10;;;0.10;;
13311;SDS011;34033;48.672;9.376;2023-01-15T03:43:26;0.10;;;0.10;;
13311;SDS011;34033;48.672;9.376;2023-01-15T03:46:14;0.10;;;0.10;;
13311;SDS011;34033;48.672;9.376;2023-01-15T03:49:03;0.10;;;0.10;;
13311;SDS011;34033;48.672;9.376;2023-01-15T03:54:26;0.00;;;0.00;;
13311;SDS011;34033;48.672;9.376;2023-01-15T03:57:00;0.10;;;0.10;;
13311;SDS011;34033;48.672;9.376;2023-01-15T03:59:36;0.17;;;0.17;;
13311;SDS011;34033;48.672;9.376;2023-01-15T04:02:08;0.30;;;0.27;;
13311;SDS011;34033;48.672;9.376;2023-01-15T04:04:38;0.10;;;0.10;;
13311;SDS011;34033;48.672;9.376;2023-01-15T04:07:04;0.10;;;0.10;;
13311;SDS011;34033;48.672;9.376;2023-01-15T04:09:30;1.83;;;0.30;;
13311;SDS011;34033;48.672;9.376;2023-01-15T04:11:59;0.37;;;0.37;;
13311;SDS011;34033;48.672;9.376;2023-01-15T04:14:25;0.00;;;0.00;;
13311;SDS011;34033;48.672;9.376;2023-01-15T04:16:53;0.10;;;0.10;;
13311;SDS011;34033;48.672;9.376;2023-01-15T04:19:19;0.30;;;0.17;;
13311;SDS011;34033;48.672;9.376;2023-01-15T04:21:44;0.30;;;0.10;;
13311;SDS011;34033;48.672;9.376;2023-01-15T04:24:09;0.10;;;0.10;;
13311;SDS011;34033;48.672;9.376;2023-01-15T04:26:35;0.20;;;0.20;;
13311;SDS011;34033;48.672;9.376;2023-01-15T04:29:00;0.10;;;0.10;;
13311;SDS011;34033;48.672;9.376;2023-01-15T04:31:25;0.20;;;0.20;;
13311;SDS011;34033;48.672;9.376;2023-01-15T04:33:51;0.63;;;0.20;;
13311;SDS011;34033;48.672;9.376;2023-01-15T04:36:17;0.10;;;0.10;;
13311;SDS011;34033;48.672;9.376;2023-01-15T04:38:42;0.10;;;0.10;;
13311;SDS011;34033;48.672;9.376;2023-01-15T04:41:08;0.00;;;0.00;;
13311;SDS011;34033;48.672;9.376;2023-01-15T04:43:52;0.10;;;0.10;;
13311;SDS011;34033;48.672;9.376;2023-01-15T04:46:39;0.00;;;0.00;;
13311;SDS011;34033;48.672;9.376;2023-01-15T04:49:07;0.10;;;0.10;;
13311;SDS011;34033;48.672;9.376;2023-01-15T04:51:34;0.00;;;0.00;;
13311;SDS011;34033;48.672;9.376;2023-01-15T04:54:01;0.13;;;0.10;;
13311;SDS011;34033;48.672;9.376;2023-01-15T04:56:27;0.10;;;0.10;;
13311;SDS011;34033;48.672;9.376;2023-01-15T04:58:53;0.10;;;0.10;;
13311;SDS011;34033;48.672;9.376;2023-01-15T05:01:18;0.03;;;0.03;;
13311;SDS011;34033;48.672;9.376;2023-01-15T05:03:43;0.00;;;0.00;;
13311;SDS011;34033;48.672;9.376;2023-01-15T05:06:09;0.10;;;0.10;;
13311;SDS011;34033;48.672;9.376;2023-01-15T05:08:35;0.00;;;0.00;;
13311;SDS011;34033;48.672;9.376;2023-01-15T05:11:01;0.00;;;0.00;;
13311;SDS011;34033;48.672;9.376;2023-01-15T05:13:28;0.10;;;0.10;;
13311;SDS011;34033;48.672;9.376;2023-01-15T05:15:56;0.10;;;0.10;;
13311;SDS011;34033;48.672;9.376;2023-01-15T05:18:21;0.40;;;0.40;;
13311;SDS011;34033;48.672;9.376;2023-01-15T05:20:47;0.20;;;0.20;;
13311;SDS011;34033;48.672;9.376;2023-01-15T05:23:12;0.30;;;0.30;;
13311;SDS011;34033;48.672;9.376;2023-01-15T05:25:37;0.10;;;0.10;;
13311;SDS011;34033;48.672;9.376;2023-01-15T05:28:03;0.20;;;0.20;;
13311;SDS011;34033;48.672;9.376;2023-01-15T05:30:28;0.30;;;0.20;;
13311;SDS011;34033;48.672;9.376;2023-01-15T05:32:54;0.20;;;0.20;;
13311;SDS011;34033;48.672;9.376;2023-01-15T05:35:19;0.20;;;0.20;;
13311;SDS011;34033;48.672;9.376;2023-01-15T05:37:44;0.00;;;0.00;;
13311;SDS011;34033;48.672;9.376;2023-01-15T05:40:10;0.20;;;0.20;;
13311;SDS011;34033;48.672;9.376;2023-01-15T05:42:35;0.10;;;0.10;;
13311;SDS011;34033;48.672;9.376;2023-01-15T05:45:01;0.10;;;0.10;;
13311;SDS011;34033;48.672;9.376;2023-01-15T05:47:26;0.10;;;0.10;;
13311;SDS011;34033;48.672;9.376;2023-01-15T05:49:51;0.10;;;0.10;;
13311;SDS011;34033;48.672;9.376;2023-01-15T05:52:17;0.20;;;0.20;;
13311;SDS011;34033;48.672;9.376;2023-01-15T05:54:42;0.10;;;0.10;;
13311;SDS011;34033;48.672;9.376;2023-01-15T05:57:08;0.00;;;0.00;;
13311;SDS011;34033;48.672;9.376;2023-01-15T05:59:37;0.10;;;0.10;;
13311;SDS011;34033;48.672;9.376;2023-01-15T06:02:02;0.03;;;0.03;;
13311;SDS011;34033;48.672;9.376;2023-01-15T06:04:28;0.00;;;0.00;;
13311;SDS011;34033;48.672;9.376;2023-01-15T06:06:54;0.10;;;0.10;;
13311;SDS011;34033;48.672;9.376;2023-01-15T06:09:20;0.73;;;0.27;;
13311;SDS011;34033;48.672;9.376;2023-01-15T06:11:47;0.00;;;0.00;;
13311;SDS011;34033;48.672;9.376;2023-01-15T06:14:13;0.10;;;0.10;;
13311;SDS011;34033;48.672;9.376;2023-01-15T06:16:39;1.10;;;0.00;;
13311;SDS011;34033;48.672;9.376;2023-01-15T06:19:05;0.00;;;0.00;;
13311;SDS011;34033;48.672;9.376;2023-01-15T06:21:32;0.10;;;0.10;;
13311;SDS011;34033;48.672;9.376;2023-01-15T06:23:58;4.03;;;0.23;;
13311;SDS011;34033;48.672;9.376;2023-01-15T06:26:23;0.00;;;0.00;;
13311;SDS011;34033;48.672;9.376;2023-01-15T06:28:49;0.00;;;0.00;;
13311;SDS011;34033;48.672;9.376;2023-01-15T06:31:16;0.00;;;0.00;;
13311;SDS011;34033;48.672;9.376;2023-01-15T06:33:43;0.00;;;0.00;;
13311;SDS011;34033;48.672;9.376;2023-01-15T06:36:10;0.00;;;0.00;;
13311;SDS011;34033;48.672;9.376;2023-01-15T06:38:41;0.00;;;0.00;;
13311;SDS011;34033;48.672;9.376;2023-01-15T06:41:08;0.00;;;0.00;;
13311;SDS011;34033;48.672;9.376;2023-01-15T06:43:55;0.00;;;0.00;;
13311;SDS011;34033;48.672;9.376;2023-01-15T06:46:41;0.00;;;0.00;;
13311;SDS011;34033;48.672;9.376;2023-01-15T06:49:27;0.10;;;0.10;;
13311;SDS011;34033;48.672;9.376;2023-01-15T06:51:54;0.00;;;0.00;;
13311;SDS011;34033;48.672;9.376;2023-01-15T06:54:19;0.00;;;0.00;;
13311;SDS011;34033;48.672;9.376;2023-01-15T06:56:44;0.07;;;0.03;;
13311;SDS011;34033;48.672;9.376;2023-01-15T06:59:10;0.40;;;0.00;;
13311;SDS011;34033;48.672;9.376;2023-01-15T07:01:35;0.07;;;0.00;;
13311;SDS011;34033;48.672;9.376;2023-01-15T07:04:00;0.20;;;0.20;;
13311;SDS011;34033;48.672;9.376;2023-01-15T07:06:26;0.00;;;0.00;;
13311;SDS011;34033;48.672;9.376;2023-01-15T07:08:51;0.10;;;0.10;;
13311;SDS011;34033;48.672;9.376;2023-01-15T07:11:17;2.23;;;0.10;;
13311;SDS011;34033;48.672;9.376;2023-01-15T07:13:42;0.37;;;0.20;;
13311;SDS011;34033;48.672;9.376;2023-01-15T07:16:07;0.30;;;0.30;;
13311;SDS011;34033;48.672;9.376;2023-01-15T07:18:51;0.10;;;0.10;;
13311;SDS011;34033;48.672;9.376;2023-01-15T07:21:17;0.10;;;0.10;;
13311;SDS011;34033;48.672;9.376;2023-01-15T07:23:42;0.30;;;0.30;;
13311;SDS011;34033;48.672;9.376;2023-01-15T07:26:08;0.50;;;0.20;;
13311;SDS011;34033;48.672;9.376;2023-01-15T07:28:33;0.77;;;0.43;;
13311;SDS011;34033;48.672;9.376;2023-01-15T07:30:59;0.20;;;0.20;;
13311;SDS011;34033;48.672;9.376;2023-01-15T07:33:24;0.60;;;0.30;;
13311;SDS011;34033;48.672;9.376;2023-01-15T07:35:49;0.33;;;0.30;;
13311;SDS011;34033;48.672;9.376;2023-01-15T07:38:14;0.13;;;0.13;;
13311;SDS011;34033;48.672;9.376;2023-01-15T07:40:40;0.10;;;0.10;;
13311;SDS011;34033;48.672;9.376;2023-01-15T07:43:05;0.10;;;0.10;;
13311;SDS011;34033;48.672;9.376;2023-01-15T07:45:49;0.07;;;0.07;;
13311;SDS011;34033;48.672;9.376;2023-01-15T07:48:33;0.10;;;0.10;;
13311;SDS011;34033;48.672;9.376;2023-01-15T07:51:17;0.17;;;0.17;;
13311;SDS011;34033;48.672;9.376;2023-01-15T07:53:42;0.23;;;0.10;;
13311;SDS011;34033;48.672;9.376;2023-01-15T07:56:07;0.00;;;0.00;;
13311;SDS011;34033;48.672;9.376;2023-01-15T07:58:33;0.00;;;0.00;;
13311;SDS011;34033;48.672;9.376;2023-01-15T08:00:58;0.00;;;0.00;;
13311;SDS011;34033;48.672;9.376;2023-01-15T08:03:24;0.13;;;0.13;;
13311;SDS011;34033;48.672;9.376;2023-01-15T08:05:49;0.10;;;0.10;;
13311;SDS011;34033;48.672;9.376;2023-01-15T08:08:15;0.10;;;0.00;;
13311;SDS011;34033;48.672;9.376;2023-01-15T08:10:43;0.27;;;0.27;;
13311;SDS011;34033;48.672;9.376;2023-01-15T08:13:27;0.03;;;0.03;;
13311;SDS011;34033;48.672;9.376;2023-01-15T08:16:11;0.10;;;0.10;;
13311;SDS011;34033;48.672;9.376;2023-01-15T08:18:37;0.10;;;0.10;;
13311;SDS011;34033;48.672;9.376;2023-01-15T08:21:03;0.00;;;0.00;;
13311;SDS011;34033;48.672;9.376;2023-01-15T08:23:28;0.10;;;0.10;;
13311;SDS011;34033;48.672;9.376;2023-01-15T08:25:54;0.30;;;0.30;;
13311;SDS011;34033;48.672;9.376;2023-01-15T08:28:22;0.60;;;0.60;;
13311;SDS011;34033;48.672;9.376;2023-01-15T08:30:47;4.73;;;3.23;;
13311;SDS011;34033;48.672;9.376;2023-01-15T08:33:13;1.13;;;0.70;;
13311;SDS011;34033;48.672;9.376;2023-01-15T08:35:38;0.50;;;0.40;;
13311;SDS011;34033;48.672;9.376;2023-01-15T08:38:04;0.43;;;0.43;;
13311;SDS011;34033;48.672;9.376;2023-01-15T08:40:30;1.10;;;0.93;;
13311;SDS011;34033;48.672;9.376;2023-01-15T08:42:55;0.80;;;0.80;;
13311;SDS011;34033;48.672;9.376;2023-01-15T08:45:21;1.33;;;1.33;;
13311;SDS011;34033;48.672;9.376;2023-01-15T08:47:46;0.70;;;0.70;;
13311;SDS011;34033;48.672;9.376;2023-01-15T08:50:11;0.70;;;0.70;;
13311;SDS011;34033;48.672;9.376;2023-01-15T08:52:37;0.70;;;0.70;;
13311;SDS011;34033;48.672;9.376;2023-01-15T08:55:03;0.87;;;0.87;;
13311;SDS011;34033;48.672;9.376;2023-01-15T08:57:28;0.30;;;0.30;;
13311;SDS011;34033;48.672;9.376;2023-01-15T08:59:53;0.33;;;0.30;;
13311;SDS011;34033;48.672;9.376;2023-01-15T09:02:19;0.70;;;0.33;;
13311;SDS011;34033;48.672;9.376;2023-01-15T09:04:44;0.60;;;0.60;;
13311;SDS011;34033;48.672;9.376;2023-01-15T09:07:10;0.50;;;0.50;;
13311;SDS011;34033;48.672;9.376;2023-01-15T09:09:36;1.50;;;1.40;;
13311;SDS011;34033;48.672;9.376;2023-01-15T09:12:01;0.70;;;0.70;;
13311;SDS011;34033;48.672;9.376;2023-01-15T09:14:27;0.70;;;0.70;;
13311;SDS011;34033;48.672;9.376;2023-01-15T09:16:52;0.43;;;0.43;;
13311;SDS011;34033;48.672;9.376;2023-01-15T09:19:18;0.27;;;0.27;;
13311;SDS011;34033;48.672;9.376;2023-01-15T09:21:43;0.90;;;0.90;;
13311;SDS011;34033;48.672;9.376;2023-01-15T09:24:08;0.50;;;0.50;;
13311;SDS011;34033;48.672;9.376;2023-01-15T09:26:35;1.63;;;0.63;;
13311;SDS011;34033;48.672;9.376;2023-01-15T09:29:02;1.10;;;0.50;;
13311;SDS011;34033;48.672;9.376;2023-01-15T09:31:28;0.30;;;0.30;;
13311;SDS011;34033;48.672;9.376;2023-01-15T09:33:54;0.60;;;0.60;;
13311;SDS011;34033;48.672;9.376;2023-01-15T09:36:24;0.40;;;0.40;;
13311;SDS011;34033;48.672;9.376;2023-01-15T09:38:52;0.30;;;0.30;;
13311;SDS011;34033;48.672;9.376;2023-01-15T09:41:17;0.10;;;0.10;;
13311;SDS011;34033;48.672;9.376;2023-01-15T09:46:47;0.20;;;0.20;;
13311;SDS011;34033;48.672;9.376;2023-01-15T09:55:10;0.33;;;0.30;;
13311;SDS011;34033;48.672;9.376;2023-01-15T09:57:39;0.40;;;0.40;;
13311;SDS011;34033;48.672;9.376;2023-01-15T10:00:06;0.20;;;0.20;;
13311;SDS011;34033;48.672;9.376;2023-01-15T10:02:45;0.27;;;0.27;;
13311;SDS011;34033;48.672;9.376;2023-01-15T10:05:28;0.30;;;0.30;;
13311;SDS011;34033;48.672;9.376;2023-01-15T10:07:57;0.20;;;0.20;;
13311;SDS011;34033;48.672;9.376;2023-01-15T10:10:39;0.20;;;0.20;;
13311;SDS011;34033;48.672;9.376;2023-01-15T10:13:13;0.27;;;0.27;;
13311;SDS011;34033;48.672;9.376;2023-01-15T10:15:43;0.20;;;0.20;;
13311;SDS011;34033;48.672;9.376;2023-01-15T10:18:15;0.20;;;0.20;;
13311;SDS011;34033;48.672;9.376;2023-01-15T10:24:48;0.20;;;0.20;;
13311;SDS011;34033;48.672;9.376;2023-01-15T10:26:55;0.10;;;0.10;;
13311;SDS011;34033;48.672;9.376;2023-01-15T10:42:52;0.73;;;0.10;;
13311;SDS011;34033;48.672;9.376;2023-01-15T10:45:32;0.70;;;0.10;;
13311;SDS011;34033;48.672;9.376;2023-01-15T10:48:09;0.10;;;0.10;;
13311;SDS011;34033;48.672;9.376;2023-01-15T10:50:43;0.10;;;0.10;;
13311;SDS011;34033;48.672;9.376;2023-01-15T10:55:50;0.20;;;0.20;;
13311;SDS011;34033;48.672;9.376;2023-01-15T11:00:55;0.57;;;0.20;;
13311;SDS011;34033;48.672;9.376;2023-01-15T11:03:31;0.10;;;0.10;;
13311;SDS011;34033;48.672;9.376;2023-01-15T11:06:00;0.00;;;0.00;;
13311;SDS011;34033;48.672;9.376;2023-01-15T11:08:26;0.00;;;0.00;;
13311;SDS011;34033;48.672;9.376;2023-01-15T11:10:55;0.00;;;0.00;;
13311;SDS011;34033;48.672;9.376;2023-01-15T11:13:23;0.37;;;0.37;;
13311;SDS011;34033;48.672;9.376;2023-01-15T11:16:15;0.20;;;0.20;;
13311;SDS011;34033;48.672;9.376;2023-01-15T11:19:24;0.10;;;0.10;;
13311;SDS011;34033;48.672;9.376;2023-01-15T11:22:20;0.73;;;0.10;;
13311;SDS011;34033;48.672;9.376;2023-01-15T11:24:49;0.10;;;0.10;;
13311;SDS011;34033;48.672;9.376;2023-01-15T11:27:17;0.10;;;0.10;;
13311;SDS011;34033;48.672;9.376;2023-01-15T11:29:49;2.90;;;0.17;;
13311;SDS011;34033;48.672;9.376;2023-01-15T11:32:22;0.20;;;0.20;;
13311;SDS011;34033;48.672;9.376;2023-01-15T11:35:02;0.20;;;0.20;;
13311;SDS011;34033;48.672;9.376;2023-01-15T11:37:29;1.50;;;0.30;;
13311;SDS011;34033;48.672;9.376;2023-01-15T11:39:58;0.20;;;0.20;;
13311;SDS011;34033;48.672;9.376;2023-01-15T11:42:35;0.27;;;0.27;;
13311;SDS011;34033;48.672;9.376;2023-01-15T11:45:20;0.53;;;0.53;;
13311;SDS011;34033;48.672;9.376;2023-01-15T11:48:16;0.40;;;0.40;;
13311;SDS011;34033;48.672;9.376;2023-01-15T11:53:32;0.20;;;0.20;;
13311;SDS011;34033;48.672;9.376;2023-01-15T11:56:03;0.30;;;0.30;;
13311;SDS011;34033;48.672;9.376;2023-01-15T11:58:33;0.10;;;0.10;;
13311;SDS011;34033;48.672;9.376;2023-01-15T12:01:05;0.07;;;0.07;;
13311;SDS011;34033;48.672;9.376;2023-01-15T12:03:31;0.20;;;0.20;;
13311;SDS011;34033;48.672;9.376;2023-01-15T12:06:01;0.00;;;0.00;;
13311;SDS011;34033;48.672;9.376;2023-01-15T12:08:38;0.10;;;0.10;;
13311;SDS011;34033;48.672;9.376;2023-01-15T12:24:56;0.40;;;0.40;;
13311;SDS011;34033;48.672;9.376;2023-01-15T12:30:20;1.13;;;0.90;;
13311;SDS011;34033;48.672;9.376;2023-01-15T12:35:58;0.43;;;0.40;;
13311;SDS011;34033;48.672;9.376;2023-01-15T12:41:12;0.67;;;0.53;;
13311;SDS011;34033;48.672;9.376;2023-01-15T12:43:42;1.60;;;0.70;;
13311;SDS011;34033;48.672;9.376;2023-01-15T12:46:32;0.40;;;0.40;;
13311;SDS011;34033;48.672;9.376;2023-01-15T12:49:02;0.70;;;0.70;;
13311;SDS011;34033;48.672;9.376;2023-01-15T12:51:38;0.53;;;0.53;;
13311;SDS011;34033;48.672;9.376;2023-01-15T12:54:12;0.30;;;0.30;;
13311;SDS011;34033;48.672;9.376;2023-01-15T12:56:59;0.40;;;0.40;;
13311;SDS011;34033;48.672;9.376;2023-01-15T13:08:14;0.40;;;0.40;;
13311;SDS011;34033;48.672;9.376;2023-01-15T13:10:48;0.30;;;0.30;;
13311;SDS011;34033;48.672;9.376;2023-01-15T13:13:19;0.97;;;0.67;;
13311;SDS011;34033;48.672;9.376;2023-01-15T13:15:53;0.60;;;0.60;;
13311;SDS011;34033;48.672;9.376;2023-01-15T13:21:17;0.33;;;0.30;;
13311;SDS011;34033;48.672;9.376;2023-01-15T13:32:48;0.70;;;0.70;;
13311;SDS011;34033;48.672;9.376;2023-01-15T13:37:51;0.60;;;0.60;;
13311;SDS011;34033;48.672;9.376;2023-01-15T13:43:00;0.47;;;0.47;;
13311;SDS011;34033;48.672;9.376;2023-01-15T13:45:31;1.30;;;0.33;;
13311;SDS011;34033;48.672;9.376;2023-01-15T13:48:41;0.30;;;0.30;;
13311;SDS011;34033;48.672;9.376;2023-01-15T13:51:00;0.93;;;0.60;;
13311;SDS011;34033;48.672;9.376;2023-01-15T13:56:00;0.50;;;0.50;;
13311;SDS011;34033;48.672;9.376;2023-01-15T13:58:33;0.83;;;0.67;;
13311;SDS011;34033;48.672;9.376;2023-01-15T14:01:04;0.70;;;0.70;;
13311;SDS011;34033;48.672;9.376;2023-01-15T14:03:31;0.50;;;0.50;;
13311;SDS011;34033;48.672;9.376;2023-01-15T14:05:58;0.97;;;0.50;;
13311;SDS011;34033;48.672;9.376;2023-01-15T14:08:42;0.67;;;0.60;;
13311;SDS011;34033;48.672;9.376;2023-01-15T14:16:44;0.87;;;0.70;;
13311;SDS011;34033;48.672;9.376;2023-01-15T14:25:13;0.50;;;0.50;;
13311;SDS011;34033;48.672;9.376;2023-01-15T14:33:16;1.47;;;0.60;;
13311;SDS011;34033;48.672;9.376;2023-01-15T14:36:18;0.90;;;0.70;;
13311;SDS011;34033;48.672;9.376;2023-01-15T14:38:53;0.57;;;0.57;;
13311;SDS011;34033;48.672;9.376;2023-01-15T14:41:29;0.70;;;0.70;;
13311;SDS011;34033;48.672;9.376;2023-01-15T14:43:58;0.87;;;0.60;;
13311;SDS011;34033;48.672;9.376;2023-01-15T14:46:27;0.37;;;0.37;;
13311;SDS011;34033;48.672;9.376;2023-01-15T14:48:58;2.77;;;0.53;;
13311;SDS011;34033;48.672;9.376;2023-01-15T14:51:29;0.90;;;0.90;;
13311;SDS011;34033;48.672;9.376;2023-01-15T14:54:12;0.90;;;0.80;;
13311;SDS011;34033;48.672;9.376;2023-01-15T14:57:15;0.80;;;0.60;;
13311;SDS011;34033;48.672;9.376;2023-01-15T15:02:07;1.07;;;0.60;;
13311;SDS011;34033;48.672;9.376;2023-01-15T15:04:44;0.60;;;0.60;;
13311;SDS011;34033;48.672;9.376;2023-01-15T15:07:13;0.40;;;0.40;;
13311;SDS011;34033;48.672;9.376;2023-01-15T15:09:42;1.30;;;0.57;;
13311;SDS011;34033;48.672;9.376;2023-01-15T15:18:00;3.20;;;0.80;;
13311;SDS011;34033;48.672;9.376;2023-01-15T15:20:37;0.57;;;0.57;;
13311;SDS011;34033;48.672;9.376;2023-01-15T15:23:27;1.10;;;0.80;;
13311;SDS011;34033;48.672;9.376;2023-01-15T15:25:58;0.60;;;0.60;;
13311;SDS011;34033;48.672;9.376;2023-01-15T15:28:25;0.50;;;0.50;;
13311;SDS011;34033;48.672;9.376;2023-01-15T15:30:51;0.47;;;0.47;;
13311;SDS011;34033;48.672;9.376;2023-01-15T15:33:19;0.50;;;0.50;;
13311;SDS011;34033;48.672;9.376;2023-01-15T15:35:48;0.83;;;0.50;;
13311;SDS011;34033;48.672;9.376;2023-01-15T15:38:17;2.03;;;0.80;;
13311;SDS011;34033;48.672;9.376;2023-01-15T15:40:45;0.43;;;0.43;;
13311;SDS011;34033;48.672;9.376;2023-01-15T15:43:39;0.40;;;0.40;;
13311;SDS011;34033;48.672;9.376;2023-01-15T15:46:34;0.37;;;0.37;;
13311;SDS011;34033;48.672;9.376;2023-01-15T15:49:18;0.57;;;0.57;;
13311;SDS011;34033;48.672;9.376;2023-01-15T15:51:48;0.93;;;0.60;;
13311;SDS011;34033;48.672;9.376;2023-01-15T15:54:21;2.30;;;0.50;;
13311;SDS011;34033;48.672;9.376;2023-01-15T15:59:51;0.63;;;0.50;;
13311;SDS011;34033;48.672;9.376;2023-01-15T16:02:18;0.60;;;0.60;;
13311;SDS011;34033;48.672;9.376;2023-01-15T16:04:48;1.70;;;0.80;;
13311;SDS011;34033;48.672;9.376;2023-01-15T16:07:24;1.33;;;0.60;;
13311;SDS011;34033;48.672;9.376;2023-01-15T16:09:52;0.60;;;0.60;;
13311;SDS011;34033;48.672;9.376;2023-01-15T16:12:21;1.10;;;0.80;;
13311;SDS011;34033;48.672;9.376;2023-01-15T16:14:48;0.90;;;0.80;;
13311;SDS011;34033;48.672;9.376;2023-01-15T16:17:14;1.00;;;0.80;;
13311;SDS011;34033;48.672;9.376;2023-01-15T16:19:41;1.07;;;0.70;;
13311;SDS011;34033;48.672;9.376;2023-01-15T16:22:07;0.67;;;0.67;;
13311;SDS011;34033;48.672;9.376;2023-01-15T16:24:37;0.73;;;0.70;;
13311;SDS011;34033;48.672;9.376;2023-01-15T16:27:03;1.03;;;0.70;;
13311;SDS011;34033;48.672;9.376;2023-01-15T16:29:32;1.13;;;1.03;;
13311;SDS011;34033;48.672;9.376;2023-01-15T16:31:59;1.17;;;1.07;;
13311;SDS011;34033;48.672;9.376;2023-01-15T16:34:26;0.97;;;0.90;;
13311;SDS011;34033;48.672;9.376;2023-01-15T16:36:54;0.90;;;0.90;;
13311;SDS011;34033;48.672;9.376;2023-01-15T16:41:54;2.70;;;1.50;;
13311;SDS011;34033;48.672;9.376;2023-01-15T16:44:23;1.70;;;1.20;;
13311;SDS011;34033;48.672;9.376;2023-01-15T16:47:00;1.57;;;1.27;;
13311;SDS011;34033;48.672;9.376;2023-01-15T16:49:27;1.17;;;1.07;;
13311;SDS011;34033;48.672;9.376;2023-01-15T16:51:55;1.00;;;1.00;;
13311;SDS011;34033;48.672;9.376;2023-01-15T16:56:53;0.77;;;0.77;;
13311;SDS011;34033;48.672;9.376;2023-01-15T17:01:51;1.30;;;1.20;;
13311;SDS011;34033;48.672;9.376;2023-01-15T17:07:03;0.93;;;0.93;;
13311;SDS011;34033;48.672;9.376;2023-01-15T17:09:30;1.30;;;1.20;;
13311;SDS011;34033;48.672;9.376;2023-01-15T17:11:58;1.87;;;1.43;;
13311;SDS011;34033;48.672;9.376;2023-01-15T17:14:30;0.87;;;0.87;;
13311;SDS011;34033;48.672;9.376;2023-01-15T17:19:44;0.83;;;0.83;;
13311;SDS011;34033;48.672;9.376;2023-01-15T17:22:12;1.27;;;1.13;;
13311;SDS011;34033;48.672;9.376;2023-01-15T17:24:46;1.80;;;1.47;;
13311;SDS011;34033;48.672;9.376;2023-01-15T17:27:12;1.10;;;1.00;;
13311;SDS011;34033;48.672;9.376;2023-01-15T17:29:38;1.23;;;0.90;;
13311;SDS011;34033;48.672;9.376;2023-01-15T17:32:03;1.23;;;1.13;;
13311;SDS011;34033;48.672;9.376;2023-01-15T17:34:29;1.47;;;0.97;;